Mount Royal, NJ

4:09 PM EST on December 13, 2019 (GMT -0500)
Villages at Berkely | | Change Station

Elev 89 ft 39.79 °N, 75.18 °W | Updated 15 seconds ago

Rain
Rain
44.4 °F
Feels Like 44 °F
N
0
Wind Variable Wind from SSE
Gusts 0.0 mph

Today
High -- | Low -- °F
--% Chance of Precip.
Yesterday
High -- | Low -- °F
Precip. -- in
Pressure 30.16 in
Visibility 4.0 miles
Clouds Overcast 900 ft
Windchill 44 °F
Dew Point 42 °F
Humidity 94%
Rainfall 0.01 in
Snow Depth Not available.
7:13 AM 4:36 PM
Full, 97% visible
METAR KPHL 132054Z 06005KT 4SM -RA BR OVC009 08/06 A3016 RMK AO2 SLP213 P0001 60002 T00780056 56020
Pressure 30.16 in
Visibility 4.0 miles
Clouds Overcast 900 ft
Windchill 44 °F
Dew Point 42 °F
Humidity 94%
Rainfall 0.01 in
Snow Depth Not available.
7:13 AM 4:36 PM
Full, 97% visible
METAR KPHL 132054Z 06005KT 4SM -RA BR OVC009 08/06 A3016 RMK AO2 SLP213 P0001 60002 T00780056 56020

Get Severe Weather Alerts

Thanks for signing up!

Be on the lookout for a verification email in your inbox.

You'll start receiving the daily forecast at 6 AM.

×

10-Day Weather Forecast

Almanac

Astronomy

Dec. 13, 2019 Rise Set
Actual Time
Civil Twilight
Nautical Twilight
Astronomical Twilight
Moon
Length of Visible Light
Length of Day
Tomorrow will be .
, % of the Moon is Illuminated

Today's Extremes

State Highs State Lows

Community

WunderPhotos

Category 6

Welcome to Category 6. This is the collective home for Weather Underground's featured writeups by Dr. Jeff Masters (right), Bob Henson (left), Chris Burt, and other regular contributors.

Nearby

Air Quality

  Air Quality AQ Index Pollutant
Not available.

Snow Depth

Station Depth Elevation

Earthquake Activity

City Distance Mag. Time & Date
Minimum magnitude displayed is 2.5.

Coastal Water Temperatures

Place Temperature

Stations

Nearby Weather Stations

Station Location Temp. Windchill Dew Point Humidity Wind Precip. Elev Updated Type
                   

Watches & Warnings

There are currently no watches in effect.